Observations for SYDNEY INTL AIRPORT, Australia (YSSY)

YSSY 260500Z 18017KT 9999 FEW015 SCT020 BKN025 15/12 Q1021  
YSSY 260430Z 20015KT 9999 FEW022 SCT030 BKN055 15/13 Q1021 NOSIG
YSSY 260400Z 19016KT 9999 FEW013 SCT028 BKN032 15/12 Q1021 NOSIG
YSSY 260330Z 20015KT 9999 FEW010 SCT025 BKN032 14/12 Q1021 NOSIG
YSSY 260310Z 19017G29KT 9999 FEW011 SCT025 BKN030 14/11 Q1021
YSSY 260310Z 19017G29KT 9999 FEW011 SCT025 BKN030 14/11 Q1021 FM0330 18017KT 9999 -SHRA FEW010 BKN025
YSSY 260300Z 19017KT 9999 FEW011 BKN027 BKN035 14/11 Q1021 NOSIG
YSSY 260230Z 18016KT 9999 -DZ FEW011 SCT025 BKN032 14/11 Q1022 NOSIG
YSSY 260200Z 18016KT 9999 -DZ FEW008 BKN025 BKN032 14/12 Q1022 NOSIG
YSSY 260130Z 17015KT 9999 SCT009 BKN025 14/11 Q1022 NOSIG   
YSSY 260100Z 16015KT 9999 FEW006 BKN020 BKN025 14/12 Q1022 NOSIG
YSSY 260030Z 17015KT 9999 -DZ SCT006 BKN018 BKN025 13/12 Q1023 INTER 0030/0100 8000 SHRA BKN012 
YSSY 260030Z 17015KT 9999 -DZ SCT006 BKN018 BKN025 13/12 Q1023
YSSY 260030Z 17015KT 9999 -DZ SCT006 BKN018 BKN025 13/12 Q1023 INTER 0030/0100 8000 SHRA BKN012
YSSY 260000Z 17016KT 9999 -DZ FEW008 BKN013 BKN018 13/13 Q1023  
YSSY 260000Z 17016KT 9999 -DZ FEW008 BKN013 BKN018 13/13 Q1023
YSSY 260000Z 17016KT 9999 -DZ FEW008 BKN013 BKN018 13/13 Q1023 FM0030 16015KT 9999 -SHRA SCT010 BKN025 INTER 0030/0100 8000 SHRA BKN010
YSSY 252330Z 18016KT 7000 -SHRA SCT006 BKN011 BKN016 13/12 Q1023 FM0000 16015KT 9999 -SHRA SCT010 BKN025 INTER 0000/0100 8000 SHRA BKN010   
YSSY 252330Z 18016KT 7000 -SHRA SCT006 BKN011 BKN016 13/12 Q1023
YSSY 252330Z 18016KT 7000 -SHRA SCT006 BKN011 BKN016 13/12 Q1023 FM0000 16015KT9999 -SHRA SCT010 BKN025 INTER 0000/0100 8000 SHRA BKN010
YSSY 252300Z 18016KT 7000 SHRA SCT007 BKN010 BKN020 13/12 Q1023 
YSSY 252300Z 18016KT 7000 SHRA SCT007 BKN010 BKN020 13/12 Q1023
YSSY 252300Z 18016KT 7000 SHRA SCT007 BKN010 BKN020 13/12 Q1023 FM2330 16015KT 9999 -SHRA SCT010 BKN025 INTER 2330/0100 8000 SHRA BKN010
YSSY 252230Z 20013KT 9000 DZ SCT006 BKN013 BKN018 13/12 Q1023 FM2300 18015KT 9999 -SHRA SCT015 BKN025   
YSSY 252226Z 20013KT 9000 DZ VCSH BKN008 BKN015 BKN018 13/12 Q1023
YSSY 252226Z 20013KT 9000 DZ VCSH BKN008 BKN015 BKN018 13/12 Q1023 FM2300 18015KT 9999 -SHRA SCT015 BKN025
YSSY 252230Z 20013KT 9000 DZ SCT006 BKN013 BKN018 13/12 Q1023
YSSY 252230Z 20013KT 9000 DZ SCT006 BKN013 BKN018 13/12 Q1023 FM2300 18015KT 9999 -SHRA SCT015 BKN025
YSSY 252256Z 17015KT 8000 SHRA BKN008 BKN018 BKN025 13/12 Q1023
YSSY 252256Z 17015KT 8000 SHRA BKN008 BKN018 BKN025 13/12 Q1023 FM2300 16015KT 9999 -SHRA SCT015 BKN025 INTER 2256/0100 8000 SHRA BKN010
YSSY 252200Z 20013KT 9999 FEW008 BKN025 13/12 Q1022 FM2230 18015KT 9999 -SHRA SCT015 BKN025 
YSSY 252130Z 18013KT 9999 -DZ FEW007 SCT018 BKN023 14/13 Q1022 NOSIG
YSSY 252120Z 17012KT 9999 -DZ VCSH SCT008 BKN015 BKN022 13/12 Q1022
YSSY 252120Z 17012KT 9999 -DZ VCSH SCT008 BKN015 BKN022 13/12 Q1022 FM2200 18015KT 9999 -SHRA SCT015 BKN025
YSSY 252100Z 20013KT 9000 -SHRA SCT008 BKN013 BKN019 13/13 Q1022 FM2130 18015KT 9999 -SHRA SCT015 BKN025
YSSY 252100Z 20013KT 9000 -SHRA SCT008 BKN013 BKN019 13/13 Q1022
YSSY 252100Z 20013KT 9000 -SHRA SCT008 BKN013 BKN019 13/13 Q1022 FM2130 18015KT9999 -SHRA SCT015 BKN025
YSSY 252039Z 19015KT 9999 -DZ VCSH SCT008 BKN013 BKN020 13/12 Q1022
YSSY 252039Z 19015KT 9999 -DZ VCSH SCT008 BKN013 BKN020 13/12 Q1022 FM2100 18015KT 9999 -SHRA SCT015 BKN025
YSSY 252030Z 19016KT 9999 SCT011 SCT017 BKN022 13/12 Q1022  
YSSY 252000Z 19015KT 9999 -DZ VCSH FEW011 SCT025 BKN046 13/12 Q1021 NOSIG   
YSSY 251930Z 17013KT 9999 VCSH FEW011 BKN030 14/12 Q1021 FM1930 18015KT 9999 -SHRA SCT015 BKN025
YSSY 251930Z 17013KT 9999 VCSH FEW011 BKN030 14/12 Q1021
YSSY 251930Z 17013KT 9999 VCSH FEW011 BKN030 14/12 Q1021 FM1930 18015KT 9999 -SHRA SCT015 BKN025
YSSY 251900Z 18015KT 9999 -DZ SCT008 BKN012 13/12 Q1021 
YSSY 251900Z 18015KT 9999 -DZ SCT008 BKN012 13/12 Q1021
YSSY 251900Z 18015KT 9999 -DZ SCT008 BKN012 13/12 Q1021 FM1930 18015KT 9999 -SHRA SCT015 BKN025
YSSY 251830Z 20015KT 9999 SCT018 BKN025 13/12 Q1021 NOSIG   
YSSY 251800Z 20015KT 9999 SCT019 BKN025 13/11 Q1020 NOSIG   
YSSY 251730Z 18015KT 9999 SCT015 BKN025 15/12 Q1020 NOSIG   
YSSY 251700Z 17013KT 9999 SCT015 BKN025 15/11 Q1020 NOSIG   
YSSY 251630Z 17014KT 9999 SCT020 BKN055 14/11 Q1020 NOSIG   
YSSY 251600Z 17016KT 9999 FEW015 BKN045 14/12 Q1021 NOSIG   
YSSY 251530Z 20012KT 9999 SCT020 BKN060 14/11 Q1021 NOSIG   
YSSY 251500Z 19009KT 9999 FEW030 BKN060 14/12 Q1021 NOSIG   
YSSY 251430Z 20008KT 9999 FEW030 BKN070 14/12 Q1021 NOSIG   
YSSY 251400Z 16009KT 9999 FEW030 BKN070 14/12 Q1021 NOSIG   
YSSY 251330Z 19012KT 9999 FEW030 BKN070 14/12 Q1021 NOSIG   
YSSY 251300Z 20012KT 9999 FEW030 BKN070 14/12 Q1021 NOSIG   
YSSY 251230Z 19011KT 9999 SCT030 BKN070 14/11 Q1021 NOSIG   
YSSY 251200Z 20010KT 9999 SCT030 BKN040 14/11 Q1021 NOSIG   
YSSY 251130Z 21012G22KT 9999 SCT030 BKN060 15/10 Q1021 NOSIG
YSSY 251100Z 15008KT 9999 FEW030 BKN050 16/09 Q1021 NOSIG   
YSSY 251030Z 15010KT 9999 FEW035 BKN045 16/10 Q1020 NOSIG   
YSSY 251000Z 15011KT 9999 FEW030 BKN160 16/10 Q1020 NOSIG   
YSSY 250930Z 14010KT 9999 SCT040 BKN050 16/10 Q1020 NOSIG   
YSSY 250900Z 15011KT 9999 SCT035 BKN045 16/10 Q1020 NOSIG   
YSSY 250830Z 15011KT 9999 FEW030 BKN040 16/10 Q1020 NOSIG   
YSSY 250800Z 15012KT 9999 FEW040 16/10 Q1019 NOSIG  
YSSY 250730Z 15015KT 9999 SCT030 SCT100 16/10 Q1019 NOSIG   
YSSY 250700Z 14012KT 9999 FEW018 SCT028 16/10 Q1018 NOSIG   
YSSY 250630Z 15014KT 9999 FEW018 SCT027 17/10 Q1018 NOSIG   
YSSY 250600Z 15015KT 9999 FEW018 SCT027 17/10 Q1018 NOSIG   
YSSY 250530Z 16015KT 9999 FEW018 SCT025 17/11 Q1017 NOSIG   
YSSY 250500Z 15016KT 9999 FEW018 SCT025 17/11 Q1017 NOSIG   
YSSY 250430Z 16017KT 9999 FEW018 SCT023 17/11 Q1017 NOSIG